Time;durP1;ratioP1;P1;durP2;ratioP2;P2;SDS_P1;SDS_P2;PMS_P1;PMS_P2;Temp;Humidity;BMP_temperature;BMP_pressure;BME280_temperature;BME280_humidity;BME280_pressure;Samples;Min_cycle;Max_cycle;Signal;HPM_P1;HPM_P2
2022/10/18 00:02:07;;;;;;;15.35;8.73;;;;;;;13.98;100.00;102447.66;5048698;28;20033;-74
2022/10/18 00:04:32;;;;;;;16.60;9.27;;;;;;;13.97;100.00;102432.22;5047446;28;20029;-73
2022/10/18 00:06:58;;;;;;;15.98;8.18;;;;;;;13.97;100.00;102443.16;5047566;28;20032;-74
2022/10/18 00:09:23;;;;;;;12.20;8.75;;;;;;;13.96;100.00;102441.41;5047201;28;20053;-74
2022/10/18 00:11:49;;;;;;;14.43;8.60;;;;;;;13.94;100.00;102446.09;5047030;28;20036;-74
2022/10/18 00:14:14;;;;;;;19.05;9.43;;;;;;;13.95;100.00;102438.78;5047508;28;20055;-74
2022/10/18 00:16:40;;;;;;;14.52;8.50;;;;;;;13.95;100.00;102444.25;5053328;28;20032;-74
2022/10/18 00:19:05;;;;;;;16.88;8.68;;;;;;;13.92;100.00;102430.75;5060979;28;20496;-73
2022/10/18 00:21:30;;;;;;;13.90;8.85;;;;;;;13.93;100.00;102441.59;5066376;28;20024;-74
2022/10/18 00:23:56;;;;;;;12.23;7.13;;;;;;;13.93;100.00;102435.22;5050264;28;20032;-74
2022/10/18 00:26:25;;;;;;;12.63;7.85;;;;;;;13.93;100.00;102444.31;5064513;28;20040;-74
2022/10/18 00:28:53;;;;;;;10.45;7.50;;;;;;;13.92;100.00;102438.94;5048280;28;20439;-74
2022/10/18 00:31:27;;;;;;;11.15;7.65;;;;;;;13.92;100.00;102436.22;5048317;28;20112;-74
2022/10/18 00:33:56;;;;;;;11.95;8.20;;;;;;;13.93;100.00;102440.72;5048247;28;20041;-74
2022/10/18 00:36:23;;;;;;;13.02;7.65;;;;;;;13.92;100.00;102430.75;5048448;28;20037;-73
2022/10/18 00:38:48;;;;;;;13.00;8.38;;;;;;;13.91;100.00;102431.72;5046214;28;20040;-73
2022/10/18 00:41:17;;;;;;;12.82;8.10;;;;;;;13.92;100.00;102434.34;5048429;28;20051;-74
2022/10/18 00:44:02;;;;;;;14.27;8.27;;;;;;;13.91;100.00;102434.47;5047935;28;20052;-74
2022/10/18 00:46:31;;;;;;;10.65;7.88;;;;;;;13.89;100.00;102436.41;5048962;28;20485;-74
2022/10/18 00:49:00;;;;;;;10.88;8.00;;;;;;;13.88;100.00;102435.53;5048079;28;20400;-74
2022/10/18 00:51:48;;;;;;;12.68;7.47;;;;;;;13.89;100.00;102442.75;5056673;28;20119;-73
2022/10/18 00:54:17;;;;;;;11.20;7.55;;;;;;;13.87;100.00;102441.97;5051710;28;20041;-74
2022/10/18 00:56:43;;;;;;;11.35;7.65;;;;;;;13.87;100.00;102439.22;5051664;28;20485;-74
2022/10/18 00:59:10;;;;;;;10.30;7.45;;;;;;;13.86;100.00;102442.94;5051678;28;20033;-74
2022/10/18 01:01:35;;;;;;;14.93;8.27;;;;;;;13.85;100.00;102452.13;5050456;28;20460;-74
2022/10/18 01:04:01;;;;;;;13.07;7.50;;;;;;;13.86;100.00;102450.28;5051790;28;20037;-74
2022/10/18 01:06:27;;;;;;;9.90;6.88;;;;;;;13.83;100.00;102451.34;5050711;28;20044;-74
2022/10/18 01:09:05;;;;;;;10.23;6.78;;;;;;;13.85;100.00;102454.88;5051486;28;20361;-74
2022/10/18 01:11:57;;;;;;;14.88;9.45;;;;;;;13.88;100.00;102457.41;5051920;28;20601;-75
2022/10/18 01:14:40;;;;;;;10.85;7.85;;;;;;;13.88;100.00;102462.88;5027320;28;20292;-74
2022/10/18 01:17:05;;;;;;;;;;;;;;;13.93;100.00;102457.13;5052030;28;20452;-74
2022/10/18 01:20:12;;;;;;;14.70;7.73;;;;;;;13.89;100.00;102452.81;5053530;28;20031;-74
2022/10/18 01:22:51;;;;;;;10.23;7.45;;;;;;;13.84;100.00;102447.63;5014116;28;20832;-75
2022/10/18 01:25:28;;;;;;;9.73;7.50;;;;;;;13.86;100.00;102461.22;5051555;28;20488;-74
2022/10/18 01:28:06;;;;;;;10.27;7.25;;;;;;;13.84;100.00;102453.09;5064208;28;20400;-74
2022/10/18 01:30:44;;;;;;;12.02;7.57;;;;;;;13.84;100.00;102454.94;5070934;28;20032;-74
2022/10/18 01:33:24;;;;;;;13.93;7.63;;;;;;;13.85;100.00;102457.59;5051292;28;20037;-74
2022/10/18 01:35:59;;;;;;;13.45;8.63;;;;;;;13.85;100.00;102451.22;5052670;28;20052;-74
2022/10/18 01:38:25;;;;;;;16.83;8.40;;;;;;;13.83;100.00;102459.53;5069972;28;20043;-74
2022/10/18 01:40:52;;;;;;;11.80;7.60;;;;;;;13.82;100.00;102465.13;5064970;28;20053;-74
2022/10/18 01:43:20;;;;;;;9.48;7.28;;;;;;;13.79;100.00;102461.56;5050807;28;20101;-74
2022/10/18 01:45:46;;;;;;;10.98;6.93;;;;;;;13.79;100.00;102472.50;5051527;28;20455;-74
2022/10/18 01:48:12;;;;;;;10.00;6.68;;;;;;;13.75;100.00;102465.47;5049583;28;20033;-75
2022/10/18 01:50:38;;;;;;;12.15;7.25;;;;;;;13.74;100.00;102463.72;5050156;28;20036;-74
2022/10/18 01:53:03;;;;;;;10.15;7.60;;;;;;;13.72;100.00;102460.19;5050742;28;20506;-74
2022/10/18 01:55:57;;;;;;;9.13;7.22;;;;;;;13.71;100.00;102455.69;5051091;28;20044;-74
2022/10/18 01:58:37;;;;;;;15.20;8.32;;;;;;;13.67;100.00;102442.31;5049443;28;20040;-74
2022/10/18 02:01:10;;;;;;;9.90;7.95;;;;;;;13.63;100.00;102460.75;5051253;28;20112;-73
2022/10/18 02:03:42;;;;;;;10.52;7.20;;;;;;;13.62;100.00;102466.31;5050279;28;20037;-73
2022/10/18 02:06:26;;;;;;;14.98;7.70;;;;;;;13.63;100.00;102468.94;5050951;28;20112;-73
2022/10/18 02:09:18;;;;;;;9.63;7.18;;;;;;;13.62;100.00;102461.72;5050426;28;20147;-74
2022/10/18 02:11:46;;;;;;;34.17;7.72;;;;;;;13.60;100.00;102460.91;5050587;28;20071;-74
2022/10/18 02:14:15;;;;;;;12.55;6.05;;;;;;;13.61;100.00;102462.66;5049328;28;20025;-74
2022/10/18 02:16:44;;;;;;;28.88;7.57;;;;;;;13.60;100.00;102455.44;5050551;28;20033;-74
2022/10/18 02:19:17;;;;;;;12.68;7.00;;;;;;;13.59;100.00;102458.28;5050199;28;20134;-74
2022/10/18 02:21:44;;;;;;;11.85;6.88;;;;;;;13.53;100.00;102452.22;5050314;28;20083;-75
2022/10/18 02:24:13;;;;;;;11.73;6.57;;;;;;;13.53;100.00;102459.53;5050297;28;20435;-74
2022/10/18 02:26:38;;;;;;;22.83;7.25;;;;;;;13.48;100.00;102456.19;5050232;28;20055;-74
2022/10/18 02:29:04;;;;;;;7.25;6.13;;;;;;;13.46;100.00;102455.38;5050012;28;20108;-74
2022/10/18 02:31:38;;;;;;;8.77;5.50;;;;;;;13.44;100.00;102460.94;5050578;28;20423;-75
2022/10/18 02:34:07;;;;;;;7.13;6.03;;;;;;;13.44;100.00;102463.69;5050396;28;20052;-74
2022/10/18 02:36:39;;;;;;;11.20;5.72;;;;;;;13.42;100.00;102462.00;5063192;28;20142;-74
2022/10/18 02:39:13;;;;;;;9.93;6.25;;;;;;;13.40;100.00;102463.94;5070206;28;20068;-74
2022/10/18 02:41:39;;;;;;;19.23;6.72;;;;;;;13.34;100.00;102456.13;5063634;28;20076;-75
2022/10/18 02:44:04;;;;;;;8.90;6.75;;;;;;;13.39;100.00;102470.41;5048441;28;20033;-74
2022/10/18 02:46:30;;;;;;;6.35;5.20;;;;;;;13.38;100.00;102474.06;5060515;28;20082;-74
2022/10/18 02:48:55;;;;;;;7.60;5.78;;;;;;;13.35;100.00;102475.16;5049625;28;20032;-74
2022/10/18 02:51:20;;;;;;;8.25;7.00;;;;;;;13.33;100.00;102479.81;5049140;28;20039;-75
2022/10/18 02:53:46;;;;;;;11.07;8.00;;;;;;;13.31;100.00;102468.09;5048413;28;20072;-74
2022/10/18 02:56:11;;;;;;;9.43;7.50;;;;;;;13.35;100.00;102472.41;5048351;28;20855;-74
2022/10/18 02:58:37;;;;;;;12.75;7.45;;;;;;;13.34;100.00;102464.31;5057709;28;20032;-75
2022/10/18 03:01:02;;;;;;;9.93;7.18;;;;;;;13.33;100.00;102465.25;5067545;28;20483;-74
2022/10/18 03:03:27;;;;;;;13.05;6.90;;;;;;;13.32;100.00;102463.50;5069804;28;20025;-74
2022/10/18 03:05:53;;;;;;;9.32;7.32;;;;;;;13.32;100.00;102472.59;5062657;28;20033;-74
2022/10/18 03:08:18;;;;;;;12.57;7.60;;;;;;;13.33;100.00;102476.19;5047939;28;20457;-75
2022/10/18 03:10:45;;;;;;;9.65;7.03;;;;;;;13.33;100.00;102478.94;5049764;28;20037;-74
2022/10/18 03:13:11;;;;;;;9.30;7.25;;;;;;;13.33;100.00;102482.53;5033728;28;20044;-74
2022/10/18 03:15:36;;;;;;;13.63;7.18;;;;;;;13.28;100.00;102474.59;5047682;28;20033;-74
2022/10/18 03:18:02;;;;;;;14.48;8.43;;;;;;;13.35;100.00;102474.28;5049772;28;20048;-74
2022/10/18 03:20:27;;;;;;;14.20;8.88;;;;;;;13.35;100.00;102475.16;5031829;28;20352;-74
2022/10/18 03:22:53;;;;;;;9.60;7.82;;;;;;;13.33;100.00;102474.34;5049199;28;20089;-74
2022/10/18 03:25:18;;;;;;;10.30;7.38;;;;;;;13.32;100.00;102472.59;5049173;28;20037;-74
2022/10/18 03:27:44;;;;;;;9.40;6.93;;;;;;;13.31;100.00;102472.69;5049171;28;20494;-74
2022/10/18 03:30:10;;;;;;;10.40;7.20;;;;;;;13.31;100.00;102479.03;5065027;28;20040;-74
2022/10/18 03:32:37;;;;;;;18.25;8.40;;;;;;;13.32;100.00;102483.53;5068604;28;20044;-74
2022/10/18 03:35:04;;;;;;;10.95;7.72;;;;;;;13.32;100.00;102483.53;5058607;28;20044;-74
2022/10/18 03:37:29;;;;;;;13.18;9.05;;;;;;;13.37;100.00;102483.25;5052597;28;20029;-74
2022/10/18 03:39:55;;;;;;;14.10;7.80;;;;;;;13.33;100.00;102487.13;5049262;28;20602;-74
2022/10/18 03:42:20;;;;;;;12.27;7.47;;;;;;;13.32;100.00;102489.00;5047337;28;20063;-74
2022/10/18 03:44:45;;;;;;;15.32;8.68;;;;;;;13.32;100.00;102483.53;5048833;28;20068;-74
2022/10/18 03:47:11;;;;;;;11.63;7.30;;;;;;;13.31;100.00;102480.88;5048726;28;20056;-74
2022/10/18 03:49:37;;;;;;;12.93;6.70;;;;;;;13.31;100.00;102479.03;5049055;28;20444;-74
2022/10/18 03:52:02;;;;;;;13.77;8.30;;;;;;;13.33;100.00;102476.19;5049452;28;20036;-74
2022/10/18 03:54:28;;;;;;;13.85;8.20;;;;;;;13.33;100.00;102474.34;5048173;28;20060;-74
2022/10/18 03:56:53;;;;;;;19.30;8.25;;;;;;;13.33;100.00;102468.00;5048694;28;20103;-74
2022/10/18 03:59:19;;;;;;;16.95;7.32;;;;;;;13.28;100.00;102463.69;5064325;28;20033;-74
2022/10/18 04:01:44;;;;;;;12.70;8.05;;;;;;;13.24;100.00;102462.13;5057008;28;20489;-74
2022/10/18 04:04:09;;;;;;;21.65;7.82;;;;;;;13.21;100.00;102462.25;5048541;28;20094;-75
2022/10/18 04:06:34;;;;;;;9.52;6.82;;;;;;;13.18;100.00;102461.53;5048785;28;20044;-74
2022/10/18 04:09:00;;;;;;;13.88;7.30;;;;;;;13.16;100.00;102464.38;5047312;28;20107;-74
2022/10/18 04:11:25;;;;;;;16.83;7.35;;;;;;;13.14;100.00;102459.94;5057413;28;20032;-74
2022/10/18 04:13:51;;;;;;;10.93;7.20;;;;;;;13.13;100.00;102455.47;5067927;28;20051;-74
2022/10/18 04:16:16;;;;;;;16.10;7.50;;;;;;;13.11;100.00;102462.88;5063741;28;20033;-74
2022/10/18 04:18:41;;;;;;;20.45;8.23;;;;;;;13.11;100.00;102462.88;5058584;28;20037;-74
2022/10/18 04:21:07;;;;;;;11.85;7.75;;;;;;;13.09;100.00;102460.22;5054188;28;20037;-75
2022/10/18 04:23:32;;;;;;;40.08;8.98;;;;;;;13.08;100.00;102472.13;5064307;28;20373;-74
2022/10/18 04:25:57;;;;;;;40.28;7.95;;;;;;;13.02;100.00;102467.00;5063856;28;20027;-75
2022/10/18 04:28:23;;;;;;;12.98;6.22;;;;;;;13.06;100.00;102476.81;5067934;28;20037;-74
2022/10/18 04:30:50;;;;;;;16.35;6.47;;;;;;;13.06;100.00;102478.66;5070182;28;20093;-74
2022/10/18 04:33:15;;;;;;;10.65;7.18;;;;;;;13.06;100.00;102484.13;5051066;28;20034;-75
2022/10/18 04:35:40;;;;;;;15.80;6.45;;;;;;;13.02;100.00;102480.69;5052545;28;20060;-75
2022/10/18 04:38:06;;;;;;;34.70;9.18;;;;;;;12.98;100.00;102473.63;5050893;28;20028;-75
2022/10/18 04:40:31;;;;;;;18.90;9.85;;;;;;;13.01;100.00;102473.44;5067812;28;20461;-75
2022/10/18 04:42:56;;;;;;;20.67;8.10;;;;;;;13.01;100.00;102474.34;5057300;28;20455;-75
2022/10/18 04:45:22;;;;;;;16.27;7.30;;;;;;;12.99;100.00;102475.38;5050276;28;20401;-74
2022/10/18 04:47:47;;;;;;;11.95;7.68;;;;;;;12.97;100.00;102477.31;5060002;28;20063;-75
2022/10/18 04:50:13;;;;;;;49.08;12.10;;;;;;;12.98;100.00;102474.50;5065461;28;20044;-74
2022/10/18 04:52:38;;;;;;;31.02;9.00;;;;;;;12.98;100.00;102477.22;5051737;28;20457;-75
2022/10/18 04:55:04;;;;;;;15.50;8.98;;;;;;;12.94;100.00;102478.38;5051958;28;20460;-74
2022/10/18 04:57:29;;;;;;;12.18;8.18;;;;;;;12.93;100.00;102476.59;5052545;28;20094;-75
2022/10/18 04:59:54;;;;;;;12.77;7.78;;;;;;;12.91;100.00;102484.00;5069714;28;20047;-74
2022/10/18 05:02:19;;;;;;;16.73;7.95;;;;;;;12.90;100.00;102482.22;5069013;28;20028;-75
2022/10/18 05:04:45;;;;;;;12.73;7.95;;;;;;;12.84;100.00;102473.50;5063687;28;20465;-74
2022/10/18 05:07:10;;;;;;;18.23;7.72;;;;;;;12.82;100.00;102479.03;5050528;28;20456;-74
2022/10/18 05:09:35;;;;;;;13.50;6.80;;;;;;;12.84;100.00;102492.63;5051824;28;20338;-75
2022/10/18 05:12:01;;;;;;;13.05;7.35;;;;;;;12.82;100.00;102487.22;5065879;28;20064;-74
2022/10/18 05:14:26;;;;;;;15.52;7.07;;;;;;;12.80;100.00;102491.91;5070056;28;20055;-75
2022/10/18 05:16:51;;;;;;;26.83;12.43;;;;;;;12.80;100.00;102486.44;5068428;28;20047;-75
2022/10/18 05:19:17;;;;;;;20.00;8.88;;;;;;;12.78;100.00;102491.13;5068328;28;20544;-75
2022/10/18 05:21:42;;;;;;;18.75;9.68;;;;;;;12.74;100.00;102495.88;5070072;28;20033;-74
2022/10/18 05:24:10;;;;;;;14.32;9.68;;;;;;;12.73;100.00;102498.69;5070194;28;20483;-75
2022/10/18 05:26:36;;;;;;;14.68;9.63;;;;;;;12.73;100.00;102498.69;5066615;28;20149;-75
2022/10/18 05:29:01;;;;;;;17.35;11.32;;;;;;;12.72;100.00;102502.38;5051596;28;20448;-74
2022/10/18 05:31:26;;;;;;;21.80;10.75;;;;;;;12.72;100.00;102502.38;5051359;28;20484;-74
2022/10/18 05:33:52;;;;;;;19.17;10.63;;;;;;;12.72;100.00;102505.97;5051260;28;20078;-74
2022/10/18 05:36:17;;;;;;;25.63;11.13;;;;;;;12.73;100.00;102510.50;5051489;28;20095;-75
2022/10/18 05:38:44;;;;;;;19.17;9.27;;;;;;;12.71;100.00;102506.94;5062406;28;20033;-75
2022/10/18 05:41:10;;;;;;;17.10;9.35;;;;;;;12.68;100.00;102496.22;5070929;28;20551;-75
2022/10/18 05:43:36;;;;;;;17.02;9.23;;;;;;;12.65;100.00;102498.22;5051421;28;20038;-75
2022/10/18 05:46:03;;;;;;;18.48;9.43;;;;;;;12.65;100.00;102511.88;5051034;28;20029;-74
2022/10/18 05:48:28;;;;;;;47.20;9.13;;;;;;;12.57;100.00;102506.81;5066492;28;20051;-74
2022/10/18 05:50:57;;;;;;;27.02;8.85;;;;;;;12.52;100.00;102509.81;5070311;28;20481;-74
2022/10/18 05:53:22;;;;;;;25.05;9.73;;;;;;;12.50;100.00;102502.69;5049062;28;20051;-75
2022/10/18 05:55:47;;;;;;;20.55;9.25;;;;;;;12.49;100.00;102503.63;5060770;28;20021;-74
2022/10/18 05:58:13;;;;;;;13.07;7.88;;;;;;;12.49;100.00;102514.53;5047958;28;20039;-75
2022/10/18 06:00:38;;;;;;;11.65;7.85;;;;;;;12.48;100.00;102515.50;5061168;28;20032;-75
2022/10/18 06:03:03;;;;;;;13.82;7.82;;;;;;;12.49;100.00;102520.00;5050484;28;20136;-74
2022/10/18 06:05:29;;;;;;;6.60;5.63;;;;;;;12.47;100.00;102521.94;5050840;28;20021;-75
2022/10/18 06:07:55;;;;;;;13.70;6.88;;;;;;;12.44;100.00;102513.91;5050299;28;20116;-75
2022/10/18 06:10:21;;;;;;;18.48;8.15;;;;;;;12.44;100.00;102514.78;5050458;28;20115;-75
2022/10/18 06:12:46;;;;;;;21.35;9.25;;;;;;;12.45;100.00;102526.59;5049946;28;20504;-76
2022/10/18 06:15:12;;;;;;;26.65;9.23;;;;;;;12.42;100.00;102527.66;5050556;28;20100;-75
2022/10/18 06:17:37;;;;;;;25.48;9.70;;;;;;;12.41;100.00;102522.28;5052696;28;20610;-75
2022/10/18 06:20:03;;;;;;;53.92;11.98;;;;;;;12.43;100.00;102526.66;5060637;28;20086;-74
2022/10/18 06:22:28;;;;;;;19.35;10.05;;;;;;;12.42;100.00;102524.91;5050510;28;20128;-75
2022/10/18 06:24:54;;;;;;;22.85;9.30;;;;;;;12.45;100.00;102526.59;5048743;28;20543;-75
2022/10/18 06:27:19;;;;;;;33.72;10.65;;;;;;;12.44;100.00;102527.56;5054517;28;20075;-75
2022/10/18 06:29:44;;;;;;;35.58;10.20;;;;;;;12.47;100.00;102541.06;5050296;28;20036;-75
2022/10/18 06:32:10;;;;;;;54.92;10.52;;;;;;;12.44;100.00;102550.28;5031907;28;20036;-75
2022/10/18 06:34:35;;;;;;;48.30;12.52;;;;;;;12.48;100.00;102553.72;5050223;28;20126;-74
2022/10/18 06:37:00;;;;;;;58.90;13.70;;;;;;;12.51;100.00;102550.84;5050075;28;20155;-74
2022/10/18 06:39:26;;;;;;;23.98;12.68;;;;;;;12.55;100.00;102548.84;5048571;28;20580;-75
2022/10/18 06:41:52;;;;;;;20.15;11.55;;;;;;;12.59;100.00;102547.69;5048914;28;20500;-75
2022/10/18 06:44:19;;;;;;;26.27;10.43;;;;;;;12.61;100.00;102552.13;5048492;28;20060;-74
2022/10/18 06:46:45;;;;;;;25.92;11.00;;;;;;;12.64;100.00;102545.63;5048425;28;20064;-74
2022/10/18 06:49:13;;;;;;;29.77;12.48;;;;;;;12.68;100.00;102555.38;5048300;28;20025;-75
2022/10/18 06:51:38;;;;;;;31.48;10.90;;;;;;;12.68;100.00;102560.84;5048966;28;20098;-75
2022/10/18 06:54:04;;;;;;;45.80;12.40;;;;;;;12.66;100.00;102570.97;5048104;28;20144;-75
2022/10/18 06:56:29;;;;;;;30.70;11.43;;;;;;;12.68;100.00;102585.41;5048554;28;20043;-75
2022/10/18 06:58:55;;;;;;;52.88;12.23;;;;;;;12.69;100.00;102584.47;5049175;28;20068;-74
2022/10/18 07:01:21;;;;;;;21.75;12.23;;;;;;;12.72;100.00;102576.09;5048069;28;20067;-75
2022/10/18 07:03:47;;;;;;;19.13;12.52;;;;;;;12.76;100.00;102580.44;5048087;28;20571;-74
2022/10/18 07:06:15;;;;;;;25.92;12.68;;;;;;;12.81;100.00;102589.25;5049384;28;20055;-74
2022/10/18 07:08:41;;;;;;;20.23;12.80;;;;;;;12.85;100.00;102592.72;5049070;28;20107;-74
2022/10/18 07:11:07;;;;;;;24.23;13.18;;;;;;;12.89;100.00;102597.94;5048106;28;20495;-74
2022/10/18 07:13:33;;;;;;;26.35;14.15;;;;;;;12.94;100.00;102592.22;5048357;28;20049;-73
2022/10/18 07:16:13;;;;;;;32.33;14.35;;;;;;;13.02;100.00;102589.97;5048495;28;20043;-74
2022/10/18 07:18:41;;;;;;;42.55;15.05;;;;;;;13.08;100.00;102600.53;5049358;28;20510;-74
2022/10/18 07:21:09;;;;;;;34.40;15.15;;;;;;;13.11;100.00;102594.03;5049022;28;20031;-74
2022/10/18 07:23:36;;;;;;;40.92;14.60;;;;;;;13.15;100.00;102607.47;5049241;28;20033;-74
2022/10/18 07:26:03;;;;;;;41.17;15.05;;;;;;;13.18;100.00;102607.25;5049514;28;20087;-74
2022/10/18 07:28:29;;;;;;;40.20;15.23;;;;;;;13.18;100.00;102611.84;5049135;28;20570;-74
2022/10/18 07:30:54;;;;;;;26.42;14.02;;;;;;;13.20;100.00;102623.59;5047637;28;20260;-74
2022/10/18 07:33:20;;;;;;;41.88;14.65;;;;;;;13.20;100.00;102616.28;5048950;28;20399;-75
2022/10/18 07:35:46;;;;;;;38.72;14.40;;;;;;;13.24;100.00;102617.00;5048715;28;20086;-74
2022/10/18 07:38:12;;;;;;;24.73;14.77;;;;;;;13.28;100.00;102624.06;5049298;28;20048;-74
2022/10/18 07:40:37;;;;;;;39.17;14.65;;;;;;;13.33;100.00;102632.00;5048863;28;20044;-74
2022/10/18 07:43:03;;;;;;;48.92;15.50;;;;;;;13.35;100.00;102639.19;5048316;28;20383;-73
2022/10/18 07:45:28;;;;;;;27.65;14.40;;;;;;;13.36;100.00;102637.31;5049142;28;20029;-74
2022/10/18 07:47:56;;;;;;;45.47;16.20;;;;;;;13.37;100.00;102650.00;5048450;28;20082;-74
2022/10/18 07:50:22;;;;;;;43.40;15.65;;;;;;;13.37;100.00;102644.56;5051482;28;20453;-74
2022/10/18 07:52:48;;;;;;;32.10;15.18;;;;;;;13.37;100.00;102650.91;5068554;28;20217;-74
2022/10/18 07:55:13;;;;;;;29.42;15.45;;;;;;;13.45;100.00;102653.22;5068795;28;20492;-74
2022/10/18 07:57:38;;;;;;;29.77;14.70;;;;;;;13.48;100.00;102658.53;5057413;28;20031;-74
2022/10/18 08:00:04;;;;;;;26.35;15.52;;;;;;;13.58;100.00;102669.84;5047416;28;20045;-74
2022/10/18 08:02:36;;;;;;;;;;;;;;;13.66;100.00;102679.38;5048477;28;20459;-75
2022/10/18 08:05:02;;;;;;;27.88;14.73;;;;;;;13.64;100.00;102683.16;5048642;28;19964;-74
2022/10/18 08:07:27;;;;;;;28.73;14.60;;;;;;;13.69;100.00;102686.50;5048674;28;20017;-75
2022/10/18 08:09:52;;;;;;;27.30;14.57;;;;;;;13.71;100.00;102681.84;5048432;28;20060;-74
2022/10/18 08:12:18;;;;;;;30.30;14.80;;;;;;;13.75;100.00;102683.41;5048539;28;20511;-74
2022/10/18 08:14:43;;;;;;;29.27;14.82;;;;;;;13.78;100.00;102686.00;5047427;28;20562;-74
2022/10/18 08:17:08;;;;;;;29.65;14.75;;;;;;;13.85;100.00;102689.25;5022251;28;20508;-73
2022/10/18 08:19:34;;;;;;;29.73;15.02;;;;;;;13.88;100.00;102692.72;5023621;28;20029;-75
2022/10/18 08:21:59;;;;;;;28.92;15.38;;;;;;;13.91;100.00;102694.41;5018023;28;20044;-74
2022/10/18 08:24:25;;;;;;;35.60;15.65;;;;;;;13.98;100.00;102701.28;5013406;28;20052;-74
2022/10/18 08:26:50;;;;;;;30.40;14.82;;;;;;;13.93;100.00;102698.78;5043475;28;20397;-75
2022/10/18 08:29:15;;;;;;;25.70;13.70;;;;;;;13.96;100.00;102705.97;5023423;28;20329;-73
2022/10/18 08:31:41;;;;;;;31.25;15.18;;;;;;;13.96;100.00;102705.97;5017159;28;20441;-74
2022/10/18 08:34:06;;;;;;;26.92;14.88;;;;;;;13.98;100.00;102704.00;5012715;28;20528;-73
2022/10/18 08:36:32;;;;;;;26.65;15.07;;;;;;;14.09;100.00;102707.03;5037695;28;20396;-75
2022/10/18 08:38:57;;;;;;;23.45;13.68;;;;;;;14.13;100.00;102702.22;5036664;28;20395;-74
2022/10/18 08:41:48;;;;;;;29.08;15.77;;;;;;;14.21;100.00;102706.31;5048215;28;20040;-74
2022/10/18 08:44:27;;;;;;;26.65;14.45;;;;;;;14.23;100.00;102718.06;5035974;28;20041;-74
2022/10/18 08:47:05;;;;;;;29.90;15.18;;;;;;;14.26;100.00;102726.06;5044841;28;20381;-74
2022/10/18 08:49:50;;;;;;;31.90;15.30;;;;;;;14.29;100.00;102711.34;5046886;28;20451;-74
2022/10/18 08:52:43;;;;;;;29.27;15.27;;;;;;;14.24;100.00;102713.47;5048134;28;20755;-75
2022/10/18 08:55:18;;;;;;;24.40;15.52;;;;;;;14.13;100.00;102719.56;5048261;28;20037;-75
2022/10/18 08:57:46;;;;;;;34.92;15.40;;;;;;;14.10;100.00;102721.59;5048788;28;20505;-74
2022/10/18 09:00:20;;;;;;;29.08;15.55;;;;;;;14.20;100.00;102715.50;5065039;28;20029;-74
2022/10/18 09:03:10;;;;;;;30.85;15.00;;;;;;;14.36;100.00;102715.50;5048037;28;20039;-74
2022/10/18 09:05:54;;;;;;;29.40;15.48;;;;;;;14.49;100.00;102707.47;5048013;28;20033;-75
2022/10/18 09:08:55;;;;;;;25.15;14.40;;;;;;;14.53;100.00;102712.66;5046429;28;20033;-75
2022/10/18 09:11:30;;;;;;;27.77;15.40;;;;;;;14.49;100.00;102724.78;5040716;28;20500;-75
2022/10/18 09:14:01;;;;;;;25.50;14.35;;;;;;;14.42;100.00;102728.81;5048996;28;20045;-75
2022/10/18 09:16:48;;;;;;;27.35;15.38;;;;;;;14.45;100.00;102730.47;5051830;28;20040;-74
2022/10/18 09:19:28;;;;;;;38.13;16.50;;;;;;;14.51;100.00;102725.59;5052721;28;20036;-75
2022/10/18 09:21:58;;;;;;;29.80;15.38;;;;;;;14.45;100.00;102725.88;5071480;28;20072;-75
2022/10/18 09:24:48;;;;;;;28.73;15.95;;;;;;;14.46;100.00;102724.94;5071633;28;20051;-75
2022/10/18 09:27:16;;;;;;;24.67;14.60;;;;;;;14.48;100.00;102719.41;5064075;28;20118;-75
2022/10/18 09:30:08;;;;;;;30.13;15.52;;;;;;;14.58;100.00;102706.91;5051712;28;20021;-74
2022/10/18 09:33:12;;;;;;;29.90;15.73;;;;;;;14.77;100.00;102712.16;5050209;28;20044;-73
2022/10/18 09:35:46;;;;;;;25.33;13.95;;;;;;;14.75;97.37;102722.34;4999572;28;20037;-74
2022/10/18 09:38:17;;;;;;;29.25;14.57;;;;;;;14.72;98.75;102712.44;4992777;28;20041;-75
2022/10/18 09:40:52;;;;;;;28.00;15.10;;;;;;;14.76;99.10;102708.56;5023369;28;20089;-75
2022/10/18 09:43:22;;;;;;;27.08;13.93;;;;;;;14.78;97.67;102720.31;5053105;28;20101;-74
2022/10/18 09:45:51;;;;;;;32.72;15.88;;;;;;;14.81;98.32;102724.72;5051236;28;20068;-74
2022/10/18 09:48:36;;;;;;;29.60;14.98;;;;;;;14.91;99.43;102733.25;5051255;28;20107;-74
2022/10/18 09:51:10;;;;;;;21.08;10.23;;;;;;;14.89;97.31;102735.22;5051701;28;20124;-74
2022/10/18 09:54:01;;;;;;;26.55;10.45;;;;;;;14.98;99.29;102730.06;5049738;28;20041;-74
2022/10/18 09:56:45;;;;;;;27.50;10.73;;;;;;;14.98;98.16;102727.31;5049594;28;20045;-74
2022/10/18 09:59:31;;;;;;;23.98;10.52;;;;;;;15.07;99.20;102714.03;5050770;28;20041;-74
2022/10/18 10:01:57;;;;;;;21.85;10.32;;;;;;;15.10;95.25;102722.94;5050819;28;20081;-75
2022/10/18 10:04:22;;;;;;;19.15;8.05;;;;;;;15.10;92.35;102727.53;5050766;28;20032;-74
2022/10/18 10:06:50;;;;;;;15.90;8.15;;;;;;;15.11;91.80;102724.72;5049357;28;20108;-74
2022/10/18 10:09:17;;;;;;;17.00;7.78;;;;;;;15.16;92.01;102725.31;5049324;28;20087;-74
2022/10/18 10:11:50;;;;;;;18.23;8.02;;;;;;;15.14;90.21;102719.03;5051009;28;20055;-74
2022/10/18 10:14:22;;;;;;;14.13;6.40;;;;;;;15.12;88.27;102721.00;5051139;28;20048;-74
2022/10/18 10:16:54;;;;;;;15.30;6.55;;;;;;;15.10;87.53;102720.19;5050474;28;20041;-74
2022/10/18 10:19:26;;;;;;;15.25;5.10;;;;;;;15.12;87.14;102725.59;5050454;28;20041;-75
2022/10/18 10:21:54;;;;;;;;;;;;;;;15.13;92.32;102725.50;5051211;28;20048;-75
2022/10/18 10:24:24;;;;;;;12.48;5.00;;;;;;;15.09;87.82;102726.66;5050372;28;19917;-74
2022/10/18 10:26:49;;;;;;;18.35;4.97;;;;;;;15.12;88.79;102720.13;5052144;28;20108;-75
2022/10/18 10:29:46;;;;;;;16.23;4.63;;;;;;;15.15;88.50;102730.88;5078441;28;20056;-74
2022/10/18 10:32:14;;;;;;;14.68;5.45;;;;;;;15.21;85.16;102739.63;5056186;28;20029;-74
2022/10/18 10:34:39;;;;;;;12.80;4.97;;;;;;;15.25;84.30;102738.47;5049437;28;20040;-74
2022/10/18 10:37:24;;;;;;;16.63;4.90;;;;;;;15.33;86.91;102748.94;5050252;28;20508;-73
2022/10/18 10:40:19;;;;;;;12.52;5.28;;;;;;;15.45;86.18;102748.19;5049495;28;20037;-75
2022/10/18 10:42:56;;;;;;;15.32;4.20;;;;;;;15.63;84.74;102748.88;5050859;28;20064;-74
2022/10/18 10:45:24;;;;;;;11.13;3.72;;;;;;;15.71;81.89;102762.13;5051108;28;20101;-75
2022/10/18 10:47:52;;;;;;;9.55;4.20;;;;;;;15.78;80.08;102764.41;5050837;28;20044;-74
2022/10/18 10:50:27;;;;;;;13.77;5.07;;;;;;;15.86;83.66;102758.44;5051411;28;20029;-74
2022/10/18 10:52:53;;;;;;;9.10;3.90;;;;;;;15.87;78.93;102757.44;5049842;28;20460;-74
2022/10/18 10:55:26;;;;;;;12.45;3.65;;;;;;;15.93;79.81;102757.03;5049896;28;20025;-76
2022/10/18 10:57:52;;;;;;;8.85;3.47;;;;;;;16.03;80.79;102747.22;5050421;28;20040;-75
2022/10/18 11:00:33;;;;;;;7.18;3.08;;;;;;;16.11;80.35;102756.84;5066447;28;20119;-74
2022/10/18 11:03:24;;;;;;;9.30;3.10;;;;;;;16.27;83.70;102754.84;5050817;28;20048;-75
2022/10/18 11:05:54;;;;;;;8.63;3.88;;;;;;;16.52;84.12;102760.47;5050821;28;20028;-75
2022/10/18 11:08:24;;;;;;;15.70;3.75;;;;;;;16.55;78.35;102765.78;5032900;28;20020;-74
2022/10/18 11:11:11;;;;;;;10.27;3.60;;;;;;;16.63;80.10;102769.84;5065320;28;20033;-75
2022/10/18 11:13:49;;;;;;;9.65;3.92;;;;;;;16.82;79.23;102757.53;5063325;28;20146;-75
2022/10/18 11:16:28;;;;;;;10.20;3.17;;;;;;;16.99;77.74;102766.50;5065060;28;20035;-75
2022/10/18 11:18:55;;;;;;;10.93;2.50;;;;;;;16.93;73.37;102766.94;5050161;28;21120;-74
2022/10/18 11:21:26;;;;;;;9.60;3.15;;;;;;;16.93;74.34;102759.56;5066375;28;20094;-74